sensor_id;sensor_type;location;lat;lon;timestamp;temperature;humidity
62853;DHT22;49205;44.868;38.140;2022-09-21T00:01:45;18.80;88.70
62853;DHT22;49205;44.868;38.140;2022-09-21T00:04:15;18.70;89.00
62853;DHT22;49205;44.868;38.140;2022-09-21T00:06:44;18.70;89.10
62853;DHT22;49205;44.868;38.140;2022-09-21T00:09:13;18.70;89.20
62853;DHT22;49205;44.868;38.140;2022-09-21T00:11:43;18.60;89.30
62853;DHT22;49205;44.868;38.140;2022-09-21T00:14:13;18.60;89.20
62853;DHT22;49205;44.868;38.140;2022-09-21T00:16:43;18.50;89.20
62853;DHT22;49205;44.868;38.140;2022-09-21T00:19:12;18.50;89.30
62853;DHT22;49205;44.868;38.140;2022-09-21T00:21:43;18.50;90.00
62853;DHT22;49205;44.868;38.140;2022-09-21T00:24:13;18.50;89.40
62853;DHT22;49205;44.868;38.140;2022-09-21T00:26:42;18.50;89.60
62853;DHT22;49205;44.868;38.140;2022-09-21T00:29:11;18.50;89.60
62853;DHT22;49205;44.868;38.140;2022-09-21T00:31:41;18.50;89.70
62853;DHT22;49205;44.868;38.140;2022-09-21T00:34:10;18.50;89.70
62853;DHT22;49205;44.868;38.140;2022-09-21T00:36:39;18.50;90.10
62853;DHT22;49205;44.868;38.140;2022-09-21T00:39:09;18.50;89.80
62853;DHT22;49205;44.868;38.140;2022-09-21T00:41:38;18.50;90.00
62853;DHT22;49205;44.868;38.140;2022-09-21T00:44:32;18.50;90.10
62853;DHT22;49205;44.868;38.140;2022-09-21T00:47:06;18.50;90.10
62853;DHT22;49205;44.868;38.140;2022-09-21T00:49:36;18.50;90.10
62853;DHT22;49205;44.868;38.140;2022-09-21T00:52:07;18.50;90.10
62853;DHT22;49205;44.868;38.140;2022-09-21T00:54:39;18.40;90.10
62853;DHT22;49205;44.868;38.140;2022-09-21T00:57:08;18.50;90.20
62853;DHT22;49205;44.868;38.140;2022-09-21T00:59:38;18.50;90.30
62853;DHT22;49205;44.868;38.140;2022-09-21T01:02:07;18.50;90.20
62853;DHT22;49205;44.868;38.140;2022-09-21T01:04:37;18.50;90.20
62853;DHT22;49205;44.868;38.140;2022-09-21T01:07:09;18.60;90.20
62853;DHT22;49205;44.868;38.140;2022-09-21T01:09:40;18.60;90.10
62853;DHT22;49205;44.868;38.140;2022-09-21T01:12:22;18.60;90.20
62853;DHT22;49205;44.868;38.140;2022-09-21T01:15:04;18.60;90.30
62853;DHT22;49205;44.868;38.140;2022-09-21T01:20:29;18.60;90.20
62853;DHT22;49205;44.868;38.140;2022-09-21T01:31:24;18.70;90.20
62853;DHT22;49205;44.868;38.140;2022-09-21T01:33:56;18.70;90.30
62853;DHT22;49205;44.868;38.140;2022-09-21T01:36:27;18.60;90.50
62853;DHT22;49205;44.868;38.140;2022-09-21T01:39:07;18.70;90.30
62853;DHT22;49205;44.868;38.140;2022-09-21T01:41:31;18.70;90.30
62853;DHT22;49205;44.868;38.140;2022-09-21T01:44:03;18.70;90.40
62853;DHT22;49205;44.868;38.140;2022-09-21T01:46:34;18.70;90.20
62853;DHT22;49205;44.868;38.140;2022-09-21T01:49:22;18.70;90.20
62853;DHT22;49205;44.868;38.140;2022-09-21T01:51:49;18.70;90.20
62853;DHT22;49205;44.868;38.140;2022-09-21T01:54:23;18.70;90.30
62853;DHT22;49205;44.868;38.140;2022-09-21T01:57:07;18.70;90.30
62853;DHT22;49205;44.868;38.140;2022-09-21T01:59:50;18.80;90.40
62853;DHT22;49205;44.868;38.140;2022-09-21T02:05:02;18.80;90.30
62853;DHT22;49205;44.868;38.140;2022-09-21T02:07:32;18.70;90.30
62853;DHT22;49205;44.868;38.140;2022-09-21T02:10:04;18.70;90.30
62853;DHT22;49205;44.868;38.140;2022-09-21T02:12:34;18.60;90.30
62853;DHT22;49205;44.868;38.140;2022-09-21T02:15:06;18.60;90.40
62853;DHT22;49205;44.868;38.140;2022-09-21T02:18:05;18.50;90.30
62853;DHT22;49205;44.868;38.140;2022-09-21T02:20:33;18.40;90.30
62853;DHT22;49205;44.868;38.140;2022-09-21T02:23:22;18.40;90.40
62853;DHT22;49205;44.868;38.140;2022-09-21T02:26:04;18.40;90.40
62853;DHT22;49205;44.868;38.140;2022-09-21T02:28:42;18.30;90.50
62853;DHT22;49205;44.868;38.140;2022-09-21T02:31:36;18.30;90.60
62853;DHT22;49205;44.868;38.140;2022-09-21T02:34:23;18.20;90.60
62853;DHT22;49205;44.868;38.140;2022-09-21T02:36:57;18.30;90.60
62853;DHT22;49205;44.868;38.140;2022-09-21T02:42:11;18.30;90.70
62853;DHT22;49205;44.868;38.140;2022-09-21T02:44:46;18.30;90.70
62853;DHT22;49205;44.868;38.140;2022-09-21T02:47:25;18.30;90.50
62853;DHT22;49205;44.868;38.140;2022-09-21T02:49:57;18.40;90.50
62853;DHT22;49205;44.868;38.140;2022-09-21T02:52:27;18.40;90.60
62853;DHT22;49205;44.868;38.140;2022-09-21T02:54:58;18.30;90.60
62853;DHT22;49205;44.868;38.140;2022-09-21T02:57:29;18.30;90.50
62853;DHT22;49205;44.868;38.140;2022-09-21T02:59:58;18.20;90.60
62853;DHT22;49205;44.868;38.140;2022-09-21T03:02:42;18.20;90.60
62853;DHT22;49205;44.868;38.140;2022-09-21T03:05:13;18.20;90.50
62853;DHT22;49205;44.868;38.140;2022-09-21T03:07:42;18.10;90.60
62853;DHT22;49205;44.868;38.140;2022-09-21T03:10:11;18.10;90.60
62853;DHT22;49205;44.868;38.140;2022-09-21T03:12:41;18.00;90.60
62853;DHT22;49205;44.868;38.140;2022-09-21T03:15:11;18.10;90.70
62853;DHT22;49205;44.868;38.140;2022-09-21T03:17:41;18.00;90.70
62853;DHT22;49205;44.868;38.140;2022-09-21T03:20:11;18.10;90.80
62853;DHT22;49205;44.868;38.140;2022-09-21T03:22:40;18.00;90.70
62853;DHT22;49205;44.868;38.140;2022-09-21T03:25:09;18.00;90.70
62853;DHT22;49205;44.868;38.140;2022-09-21T03:27:40;18.10;90.90
62853;DHT22;49205;44.868;38.140;2022-09-21T03:30:10;18.00;90.60
62853;DHT22;49205;44.868;38.140;2022-09-21T03:32:39;18.10;90.70
62853;DHT22;49205;44.868;38.140;2022-09-21T03:35:09;18.10;90.60
62853;DHT22;49205;44.868;38.140;2022-09-21T03:37:39;18.00;90.60
62853;DHT22;49205;44.868;38.140;2022-09-21T03:40:09;18.10;90.60
62853;DHT22;49205;44.868;38.140;2022-09-21T03:42:42;18.10;90.60
62853;DHT22;49205;44.868;38.140;2022-09-21T03:45:12;18.10;90.50
62853;DHT22;49205;44.868;38.140;2022-09-21T03:47:41;18.10;90.40
62853;DHT22;49205;44.868;38.140;2022-09-21T03:50:11;18.00;90.30
62853;DHT22;49205;44.868;38.140;2022-09-21T03:52:40;17.90;90.20
62853;DHT22;49205;44.868;38.140;2022-09-21T03:55:10;17.80;90.20
62853;DHT22;49205;44.868;38.140;2022-09-21T03:57:39;17.80;90.30
62853;DHT22;49205;44.868;38.140;2022-09-21T04:00:10;17.80;90.40
62853;DHT22;49205;44.868;38.140;2022-09-21T04:02:39;17.80;90.30
62853;DHT22;49205;44.868;38.140;2022-09-21T04:05:10;17.70;90.40
62853;DHT22;49205;44.868;38.140;2022-09-21T04:07:41;17.60;90.40
62853;DHT22;49205;44.868;38.140;2022-09-21T04:10:15;17.60;90.50
62853;DHT22;49205;44.868;38.140;2022-09-21T04:12:45;17.60;90.40
62853;DHT22;49205;44.868;38.140;2022-09-21T04:15:17;17.60;90.50
62853;DHT22;49205;44.868;38.140;2022-09-21T04:17:51;17.60;90.50
62853;DHT22;49205;44.868;38.140;2022-09-21T04:20:20;17.60;90.50
62853;DHT22;49205;44.868;38.140;2022-09-21T04:22:49;17.60;90.50
62853;DHT22;49205;44.868;38.140;2022-09-21T04:25:19;17.50;90.60
62853;DHT22;49205;44.868;38.140;2022-09-21T04:27:49;17.50;90.60
62853;DHT22;49205;44.868;38.140;2022-09-21T04:30:19;17.50;90.70
62853;DHT22;49205;44.868;38.140;2022-09-21T04:32:48;17.50;90.70
62853;DHT22;49205;44.868;38.140;2022-09-21T04:35:18;17.50;90.80
62853;DHT22;49205;44.868;38.140;2022-09-21T04:37:47;17.50;90.70
62853;DHT22;49205;44.868;38.140;2022-09-21T04:40:16;17.50;90.80
62853;DHT22;49205;44.868;38.140;2022-09-21T04:42:49;17.60;90.90
62853;DHT22;49205;44.868;38.140;2022-09-21T04:45:18;17.60;90.90
62853;DHT22;49205;44.868;38.140;2022-09-21T04:47:48;17.70;90.90
62853;DHT22;49205;44.868;38.140;2022-09-21T04:50:17;17.80;90.80
62853;DHT22;49205;44.868;38.140;2022-09-21T04:52:47;17.80;90.80
62853;DHT22;49205;44.868;38.140;2022-09-21T04:55:16;17.90;90.70
62853;DHT22;49205;44.868;38.140;2022-09-21T04:57:46;17.90;90.60
62853;DHT22;49205;44.868;38.140;2022-09-21T05:00:16;18.00;90.50
62853;DHT22;49205;44.868;38.140;2022-09-21T05:02:46;18.00;90.50
62853;DHT22;49205;44.868;38.140;2022-09-21T05:05:16;18.00;90.40
62853;DHT22;49205;44.868;38.140;2022-09-21T05:07:45;18.00;90.40
62853;DHT22;49205;44.868;38.140;2022-09-21T05:10:15;18.00;90.40
62853;DHT22;49205;44.868;38.140;2022-09-21T05:12:44;18.00;90.30
62853;DHT22;49205;44.868;38.140;2022-09-21T05:15:13;18.00;90.10
62853;DHT22;49205;44.868;38.140;2022-09-21T05:17:43;18.10;90.30
62853;DHT22;49205;44.868;38.140;2022-09-21T05:20:13;18.00;90.30
62853;DHT22;49205;44.868;38.140;2022-09-21T05:22:43;18.00;90.20
62853;DHT22;49205;44.868;38.140;2022-09-21T05:25:12;18.00;90.00
62853;DHT22;49205;44.868;38.140;2022-09-21T05:27:41;18.10;90.10
62853;DHT22;49205;44.868;38.140;2022-09-21T05:30:11;18.10;90.10
62853;DHT22;49205;44.868;38.140;2022-09-21T05:32:51;18.10;90.10
62853;DHT22;49205;44.868;38.140;2022-09-21T05:35:38;18.10;89.80
62853;DHT22;49205;44.868;38.140;2022-09-21T05:38:18;18.10;89.70
62853;DHT22;49205;44.868;38.140;2022-09-21T05:40:48;18.10;89.30
62853;DHT22;49205;44.868;38.140;2022-09-21T05:43:17;18.10;89.30
62853;DHT22;49205;44.868;38.140;2022-09-21T05:46:06;18.10;88.80
62853;DHT22;49205;44.868;38.140;2022-09-21T05:48:35;18.10;88.40
62853;DHT22;49205;44.868;38.140;2022-09-21T05:51:39;18.10;88.50
62853;DHT22;49205;44.868;38.140;2022-09-21T05:53:56;18.10;88.40
62853;DHT22;49205;44.868;38.140;2022-09-21T05:56:57;18.00;87.80
62853;DHT22;49205;44.868;38.140;2022-09-21T05:59:11;18.10;88.10
62853;DHT22;49205;44.868;38.140;2022-09-21T06:02:03;18.10;87.90
62853;DHT22;49205;44.868;38.140;2022-09-21T06:04:19;18.10;87.70
62853;DHT22;49205;44.868;38.140;2022-09-21T06:06:57;18.20;87.40
62853;DHT22;49205;44.868;38.140;2022-09-21T06:09:27;18.20;86.30
62853;DHT22;49205;44.868;38.140;2022-09-21T06:12:02;18.20;85.50
62853;DHT22;49205;44.868;38.140;2022-09-21T06:14:30;18.20;85.80
62853;DHT22;49205;44.868;38.140;2022-09-21T06:17:01;18.20;84.80
62853;DHT22;49205;44.868;38.140;2022-09-21T06:19:30;18.20;85.50
62853;DHT22;49205;44.868;38.140;2022-09-21T06:21:59;18.20;85.70
62853;DHT22;49205;44.868;38.140;2022-09-21T06:24:29;18.30;85.60
62853;DHT22;49205;44.868;38.140;2022-09-21T06:26:58;18.30;85.50
62853;DHT22;49205;44.868;38.140;2022-09-21T06:29:27;18.40;85.40
62853;DHT22;49205;44.868;38.140;2022-09-21T06:31:57;18.40;85.60
62853;DHT22;49205;44.868;38.140;2022-09-21T06:34:26;18.50;85.00
62853;DHT22;49205;44.868;38.140;2022-09-21T06:36:56;18.50;84.20
62853;DHT22;49205;44.868;38.140;2022-09-21T06:39:25;18.50;84.70
62853;DHT22;49205;44.868;38.140;2022-09-21T06:41:55;18.50;84.30
62853;DHT22;49205;44.868;38.140;2022-09-21T06:44:24;18.50;84.20
62853;DHT22;49205;44.868;38.140;2022-09-21T06:46:53;18.50;83.00
62853;DHT22;49205;44.868;38.140;2022-09-21T06:49:23;18.50;83.40
62853;DHT22;49205;44.868;38.140;2022-09-21T06:51:53;18.50;84.00
62853;DHT22;49205;44.868;38.140;2022-09-21T06:54:23;18.60;82.70
62853;DHT22;49205;44.868;38.140;2022-09-21T06:56:52;18.70;83.40
62853;DHT22;49205;44.868;38.140;2022-09-21T06:59:22;18.70;82.80
62853;DHT22;49205;44.868;38.140;2022-09-21T07:01:52;18.70;82.30
62853;DHT22;49205;44.868;38.140;2022-09-21T07:04:23;18.70;82.50
62853;DHT22;49205;44.868;38.140;2022-09-21T07:06:53;18.70;82.40
62853;DHT22;49205;44.868;38.140;2022-09-21T07:09:22;18.80;82.10
62853;DHT22;49205;44.868;38.140;2022-09-21T07:11:51;18.80;82.50
62853;DHT22;49205;44.868;38.140;2022-09-21T07:14:21;18.80;82.80
62853;DHT22;49205;44.868;38.140;2022-09-21T07:16:52;18.80;82.30
62853;DHT22;49205;44.868;38.140;2022-09-21T07:19:21;18.90;82.70
62853;DHT22;49205;44.868;38.140;2022-09-21T07:21:52;18.90;82.00
62853;DHT22;49205;44.868;38.140;2022-09-21T07:24:21;18.90;82.20
62853;DHT22;49205;44.868;38.140;2022-09-21T07:26:51;18.90;81.50
62853;DHT22;49205;44.868;38.140;2022-09-21T07:29:20;18.90;81.70
62853;DHT22;49205;44.868;38.140;2022-09-21T07:31:49;18.90;81.60
62853;DHT22;49205;44.868;38.140;2022-09-21T07:34:19;18.90;79.80
62853;DHT22;49205;44.868;38.140;2022-09-21T07:36:48;18.90;79.40
62853;DHT22;49205;44.868;38.140;2022-09-21T07:39:17;18.80;79.40
62853;DHT22;49205;44.868;38.140;2022-09-21T07:41:47;18.80;79.40
62853;DHT22;49205;44.868;38.140;2022-09-21T07:44:16;18.80;78.60
62853;DHT22;49205;44.868;38.140;2022-09-21T07:46:48;18.80;78.00
62853;DHT22;49205;44.868;38.140;2022-09-21T07:49:17;18.90;78.80
62853;DHT22;49205;44.868;38.140;2022-09-21T07:51:46;19.00;78.80
62853;DHT22;49205;44.868;38.140;2022-09-21T07:54:16;19.10;78.90
62853;DHT22;49205;44.868;38.140;2022-09-21T07:56:45;19.20;78.20
62853;DHT22;49205;44.868;38.140;2022-09-21T07:59:16;19.30;78.00
62853;DHT22;49205;44.868;38.140;2022-09-21T08:01:45;19.40;78.20
62853;DHT22;49205;44.868;38.140;2022-09-21T08:04:15;19.60;75.60
62853;DHT22;49205;44.868;38.140;2022-09-21T08:06:44;19.70;75.90
62853;DHT22;49205;44.868;38.140;2022-09-21T08:09:13;19.80;74.60
62853;DHT22;49205;44.868;38.140;2022-09-21T08:11:43;19.80;73.70
62853;DHT22;49205;44.868;38.140;2022-09-21T08:14:13;19.90;73.80
62853;DHT22;49205;44.868;38.140;2022-09-21T08:16:44;19.90;74.50
62853;DHT22;49205;44.868;38.140;2022-09-21T08:19:14;20.00;74.60
62853;DHT22;49205;44.868;38.140;2022-09-21T08:21:44;20.00;74.70
62853;DHT22;49205;44.868;38.140;2022-09-21T08:24:14;20.20;74.50
62853;DHT22;49205;44.868;38.140;2022-09-21T08:26:43;20.20;73.60
62853;DHT22;49205;44.868;38.140;2022-09-21T08:29:13;20.20;73.00
62853;DHT22;49205;44.868;38.140;2022-09-21T08:31:42;20.20;72.90
62853;DHT22;49205;44.868;38.140;2022-09-21T08:34:13;20.20;72.10
62853;DHT22;49205;44.868;38.140;2022-09-21T08:36:43;20.20;71.40
62853;DHT22;49205;44.868;38.140;2022-09-21T08:39:12;20.20;71.00
62853;DHT22;49205;44.868;38.140;2022-09-21T08:47:27;20.10;71.40
62853;DHT22;49205;44.868;38.140;2022-09-21T08:49:57;20.20;70.90
62853;DHT22;49205;44.868;38.140;2022-09-21T08:52:26;20.20;71.90
62853;DHT22;49205;44.868;38.140;2022-09-21T08:55:01;20.30;73.00
62853;DHT22;49205;44.868;38.140;2022-09-21T08:57:32;20.40;73.30
62853;DHT22;49205;44.868;38.140;2022-09-21T09:00:06;20.50;69.40
62853;DHT22;49205;44.868;38.140;2022-09-21T09:02:47;20.50;71.20
62853;DHT22;49205;44.868;38.140;2022-09-21T09:05:17;20.60;71.70
62853;DHT22;49205;44.868;38.140;2022-09-21T09:13:39;20.70;71.20
62853;DHT22;49205;44.868;38.140;2022-09-21T09:16:27;20.70;70.90
62853;DHT22;49205;44.868;38.140;2022-09-21T09:19:01;20.70;70.70
62853;DHT22;49205;44.868;38.140;2022-09-21T09:21:32;20.60;69.50
62853;DHT22;49205;44.868;38.140;2022-09-21T09:27:39;20.50;69.10
62853;DHT22;49205;44.868;38.140;2022-09-21T09:30:17;20.40;68.50
62853;DHT22;49205;44.868;38.140;2022-09-21T09:38:38;20.60;68.50
62853;DHT22;49205;44.868;38.140;2022-09-21T09:41:24;20.70;68.70
62853;DHT22;49205;44.868;38.140;2022-09-21T09:50:02;20.70;66.60
62853;DHT22;49205;44.868;38.140;2022-09-21T09:52:31;20.70;67.50
62853;DHT22;49205;44.868;38.140;2022-09-21T09:55:17;20.70;66.10
62853;DHT22;49205;44.868;38.140;2022-09-21T09:57:47;20.70;66.60
62853;DHT22;49205;44.868;38.140;2022-09-21T10:00:21;20.80;65.30
62853;DHT22;49205;44.868;38.140;2022-09-21T10:02:52;20.70;65.60
62853;DHT22;49205;44.868;38.140;2022-09-21T10:08:02;20.80;66.30
62853;DHT22;49205;44.868;38.140;2022-09-21T10:10:36;20.90;67.20
62853;DHT22;49205;44.868;38.140;2022-09-21T13:00:20;20.70;60.80
62853;DHT22;49205;44.868;38.140;2022-09-21T13:05:39;20.50;60.60
62853;DHT22;49205;44.868;38.140;2022-09-21T13:08:16;20.40;61.30
62853;DHT22;49205;44.868;38.140;2022-09-21T13:10:57;20.40;61.40
62853;DHT22;49205;44.868;38.140;2022-09-21T13:13:33;20.40;60.80
62853;DHT22;49205;44.868;38.140;2022-09-21T13:16:04;20.30;60.80
62853;DHT22;49205;44.868;38.140;2022-09-21T13:18:38;20.20;61.70
62853;DHT22;49205;44.868;38.140;2022-09-21T13:21:18;20.20;61.20
62853;DHT22;49205;44.868;38.140;2022-09-21T13:23:57;20.10;61.60
62853;DHT22;49205;44.868;38.140;2022-09-21T13:26:50;20.00;61.40
62853;DHT22;49205;44.868;38.140;2022-09-21T13:34:42;20.00;62.10
62853;DHT22;49205;44.868;38.140;2022-09-21T13:37:22;19.90;61.90
62853;DHT22;49205;44.868;38.140;2022-09-21T13:47:49;19.90;62.50
62853;DHT22;49205;44.868;38.140;2022-09-21T13:50:31;19.90;63.50
62853;DHT22;49205;44.868;38.140;2022-09-21T13:53:17;19.90;63.10
62853;DHT22;49205;44.868;38.140;2022-09-21T13:55:40;19.90;62.30
62853;DHT22;49205;44.868;38.140;2022-09-21T13:58:20;19.90;61.80
62853;DHT22;49205;44.868;38.140;2022-09-21T14:00:55;19.80;61.20
62853;DHT22;49205;44.868;38.140;2022-09-21T14:06:05;19.70;62.30
62853;DHT22;49205;44.868;38.140;2022-09-21T14:08:33;19.70;62.90
62853;DHT22;49205;44.868;38.140;2022-09-21T14:11:14;19.70;61.50
62853;DHT22;49205;44.868;38.140;2022-09-21T14:13:43;19.60;63.00
62853;DHT22;49205;44.868;38.140;2022-09-21T14:24:42;19.40;62.80
62853;DHT22;49205;44.868;38.140;2022-09-21T14:29:59;19.40;63.40
62853;DHT22;49205;44.868;38.140;2022-09-21T14:32:25;19.40;63.40
62853;DHT22;49205;44.868;38.140;2022-09-21T14:34:59;19.30;63.30
62853;DHT22;49205;44.868;38.140;2022-09-21T14:37:33;19.20;63.00
62853;DHT22;49205;44.868;38.140;2022-09-21T14:40:17;19.10;63.30
62853;DHT22;49205;44.868;38.140;2022-09-21T14:42:47;19.10;63.70
62853;DHT22;49205;44.868;38.140;2022-09-21T14:45:17;19.10;63.80
62853;DHT22;49205;44.868;38.140;2022-09-21T14:48:12;19.10;63.50
62853;DHT22;49205;44.868;38.140;2022-09-21T14:51:00;19.00;63.70
62853;DHT22;49205;44.868;38.140;2022-09-21T14:59:04;18.80;64.00
62853;DHT22;49205;44.868;38.140;2022-09-21T15:01:36;18.80;64.20
62853;DHT22;49205;44.868;38.140;2022-09-21T15:04:29;18.70;64.30
62853;DHT22;49205;44.868;38.140;2022-09-21T15:10:23;18.60;65.20
62853;DHT22;49205;44.868;38.140;2022-09-21T15:16:23;18.50;65.00
62853;DHT22;49205;44.868;38.140;2022-09-21T15:18:49;18.50;65.20
62853;DHT22;49205;44.868;38.140;2022-09-21T15:21:29;18.40;65.50
62853;DHT22;49205;44.868;38.140;2022-09-21T15:24:08;18.30;65.60
62853;DHT22;49205;44.868;38.140;2022-09-21T15:26:33;18.30;65.90
62853;DHT22;49205;44.868;38.140;2022-09-21T15:29:03;18.20;66.10
62853;DHT22;49205;44.868;38.140;2022-09-21T15:31:36;18.20;66.20
62853;DHT22;49205;44.868;38.140;2022-09-21T15:34:08;18.10;66.20
62853;DHT22;49205;44.868;38.140;2022-09-21T15:36:40;18.10;66.40
62853;DHT22;49205;44.868;38.140;2022-09-21T15:39:30;18.00;66.50
62853;DHT22;49205;44.868;38.140;2022-09-21T15:44:38;18.00;66.70
62853;DHT22;49205;44.868;38.140;2022-09-21T15:47:17;17.90;66.70
62853;DHT22;49205;44.868;38.140;2022-09-21T15:49:47;17.80;66.70
62853;DHT22;49205;44.868;38.140;2022-09-21T15:52:35;17.80;66.60
62853;DHT22;49205;44.868;38.140;2022-09-21T15:55:01;17.80;66.60
62853;DHT22;49205;44.868;38.140;2022-09-21T16:03:00;17.70;66.90
62853;DHT22;49205;44.868;38.140;2022-09-21T16:05:43;17.60;67.10
62853;DHT22;49205;44.868;38.140;2022-09-21T16:08:20;17.60;66.90
62853;DHT22;49205;44.868;38.140;2022-09-21T16:10:50;17.50;66.90
62853;DHT22;49205;44.868;38.140;2022-09-21T16:13:23;17.50;66.90
62853;DHT22;49205;44.868;38.140;2022-09-21T16:16:11;17.50;67.10
62853;DHT22;49205;44.868;38.140;2022-09-21T16:18:46;17.40;67.10
62853;DHT22;49205;44.868;38.140;2022-09-21T16:21:29;17.40;67.30
62853;DHT22;49205;44.868;38.140;2022-09-21T16:24:10;17.30;67.50
62853;DHT22;49205;44.868;38.140;2022-09-21T16:26:40;17.30;67.60
62853;DHT22;49205;44.868;38.140;2022-09-21T16:29:36;17.20;68.20
62853;DHT22;49205;44.868;38.140;2022-09-21T16:34:48;17.20;68.10
62853;DHT22;49205;44.868;38.140;2022-09-21T16:37:24;17.10;68.20
62853;DHT22;49205;44.868;38.140;2022-09-21T16:40:00;17.10;68.30
62853;DHT22;49205;44.868;38.140;2022-09-21T16:42:33;17.10;68.40
62853;DHT22;49205;44.868;38.140;2022-09-21T16:45:30;17.10;69.00
62853;DHT22;49205;44.868;38.140;2022-09-21T16:47:58;17.10;68.50
62853;DHT22;49205;44.868;38.140;2022-09-21T16:50:30;17.00;69.20
62853;DHT22;49205;44.868;38.140;2022-09-21T16:53:00;17.00;68.80
62853;DHT22;49205;44.868;38.140;2022-09-21T16:55:29;17.00;69.00
62853;DHT22;49205;44.868;38.140;2022-09-21T16:57:59;17.00;68.90
62853;DHT22;49205;44.868;38.140;2022-09-21T17:00:37;17.00;68.90
62853;DHT22;49205;44.868;38.140;2022-09-21T17:03:00;17.00;68.90
62853;DHT22;49205;44.868;38.140;2022-09-21T17:05:31;17.00;69.10
62853;DHT22;49205;44.868;38.140;2022-09-21T17:08:00;17.10;69.80
62853;DHT22;49205;44.868;38.140;2022-09-21T17:10:33;17.10;69.50
62853;DHT22;49205;44.868;38.140;2022-09-21T17:13:01;17.20;69.80
62853;DHT22;49205;44.868;38.140;2022-09-21T17:15:35;17.20;70.00
62853;DHT22;49205;44.868;38.140;2022-09-21T17:18:04;17.30;70.10
62853;DHT22;49205;44.868;38.140;2022-09-21T17:20:38;17.30;70.20
62853;DHT22;49205;44.868;38.140;2022-09-21T17:23:07;17.30;70.60
62853;DHT22;49205;44.868;38.140;2022-09-21T17:25:37;17.40;69.70
62853;DHT22;49205;44.868;38.140;2022-09-21T17:28:14;17.40;69.70
62853;DHT22;49205;44.868;38.140;2022-09-21T17:33:41;17.30;69.20
62853;DHT22;49205;44.868;38.140;2022-09-21T17:36:14;17.30;69.50
62853;DHT22;49205;44.868;38.140;2022-09-21T17:38:43;17.30;70.10
62853;DHT22;49205;44.868;38.140;2022-09-21T17:41:28;17.30;69.70
62853;DHT22;49205;44.868;38.140;2022-09-21T17:44:10;17.30;69.80
62853;DHT22;49205;44.868;38.140;2022-09-21T17:49:15;17.20;69.80
62853;DHT22;49205;44.868;38.140;2022-09-21T17:51:45;17.20;69.50
62853;DHT22;49205;44.868;38.140;2022-09-21T17:54:32;17.20;69.40
62853;DHT22;49205;44.868;38.140;2022-09-21T17:57:25;17.10;69.50
62853;DHT22;49205;44.868;38.140;2022-09-21T17:59:53;17.20;70.60
62853;DHT22;49205;44.868;38.140;2022-09-21T18:02:23;17.10;70.50
62853;DHT22;49205;44.868;38.140;2022-09-21T18:04:57;17.20;71.30
62853;DHT22;49205;44.868;38.140;2022-09-21T18:07:25;17.20;71.90
62853;DHT22;49205;44.868;38.140;2022-09-21T18:09:55;17.30;72.40
62853;DHT22;49205;44.868;38.140;2022-09-21T18:13:17;17.40;72.80
62853;DHT22;49205;44.868;38.140;2022-09-21T18:15:18;17.40;73.10
62853;DHT22;49205;44.868;38.140;2022-09-21T18:18:06;17.50;73.30
62853;DHT22;49205;44.868;38.140;2022-09-21T18:23:37;17.50;73.60
62853;DHT22;49205;44.868;38.140;2022-09-21T18:26:03;17.50;74.00
62853;DHT22;49205;44.868;38.140;2022-09-21T18:40:03;17.50;74.50
62853;DHT22;49205;44.868;38.140;2022-09-21T18:45:28;17.50;74.80
62853;DHT22;49205;44.868;38.140;2022-09-21T18:50:55;17.50;75.30
62853;DHT22;49205;44.868;38.140;2022-09-21T18:56:02;17.50;75.50
62853;DHT22;49205;44.868;38.140;2022-09-21T18:58:33;17.50;75.80
62853;DHT22;49205;44.868;38.140;2022-09-21T19:01:03;17.50;76.10
62853;DHT22;49205;44.868;38.140;2022-09-21T19:03:33;17.50;76.20
62853;DHT22;49205;44.868;38.140;2022-09-21T19:06:10;17.50;76.30
62853;DHT22;49205;44.868;38.140;2022-09-21T19:22:29;17.50;76.70
62853;DHT22;49205;44.868;38.140;2022-09-21T19:27:58;17.50;77.00
62853;DHT22;49205;44.868;38.140;2022-09-21T19:30:24;17.50;77.10
62853;DHT22;49205;44.868;38.140;2022-09-21T19:32:55;17.50;77.00
62853;DHT22;49205;44.868;38.140;2022-09-21T19:35:27;17.50;77.60
62853;DHT22;49205;44.868;38.140;2022-09-21T19:37:58;17.40;77.20
62853;DHT22;49205;44.868;38.140;2022-09-21T19:40:36;17.40;77.40
62853;DHT22;49205;44.868;38.140;2022-09-21T19:43:31;17.40;77.60
62853;DHT22;49205;44.868;38.140;2022-09-21T19:46:10;17.50;77.50
62853;DHT22;49205;44.868;38.140;2022-09-21T19:48:43;17.40;77.20
62853;DHT22;49205;44.868;38.140;2022-09-21T19:51:29;17.30;77.20
62853;DHT22;49205;44.868;38.140;2022-09-21T19:53:56;17.30;77.50
62853;DHT22;49205;44.868;38.140;2022-09-21T19:56:50;17.20;77.80
62853;DHT22;49205;44.868;38.140;2022-09-21T19:59:38;17.20;78.00
62853;DHT22;49205;44.868;38.140;2022-09-21T20:02:17;17.20;78.10
62853;DHT22;49205;44.868;38.140;2022-09-21T20:04:55;17.20;78.30
62853;DHT22;49205;44.868;38.140;2022-09-21T20:07:46;17.20;78.20
62853;DHT22;49205;44.868;38.140;2022-09-21T20:10:26;17.20;78.20
62853;DHT22;49205;44.868;38.140;2022-09-21T20:13:17;17.20;78.20
62853;DHT22;49205;44.868;38.140;2022-09-21T20:15:55;17.10;78.40
62853;DHT22;49205;44.868;38.140;2022-09-21T20:21:14;17.10;79.00
62853;DHT22;49205;44.868;38.140;2022-09-21T20:23:45;17.10;79.10
62853;DHT22;49205;44.868;38.140;2022-09-21T20:26:25;17.20;79.30
62853;DHT22;49205;44.868;38.140;2022-09-21T20:28:55;17.20;79.30
62853;DHT22;49205;44.868;38.140;2022-09-21T20:31:25;17.10;79.20
62853;DHT22;49205;44.868;38.140;2022-09-21T20:33:54;17.10;78.90
62853;DHT22;49205;44.868;38.140;2022-09-21T20:36:24;17.10;79.10
62853;DHT22;49205;44.868;38.140;2022-09-21T20:38:53;17.10;79.50
62853;DHT22;49205;44.868;38.140;2022-09-21T20:41:24;17.10;79.60
62853;DHT22;49205;44.868;38.140;2022-09-21T20:43:53;17.10;79.60
62853;DHT22;49205;44.868;38.140;2022-09-21T20:46:23;17.10;79.70
62853;DHT22;49205;44.868;38.140;2022-09-21T20:48:52;17.10;80.00
62853;DHT22;49205;44.868;38.140;2022-09-21T20:51:23;17.10;80.30
62853;DHT22;49205;44.868;38.140;2022-09-21T20:53:53;17.20;80.30
62853;DHT22;49205;44.868;38.140;2022-09-21T20:56:23;17.10;80.10
62853;DHT22;49205;44.868;38.140;2022-09-21T20:58:52;17.10;80.00
62853;DHT22;49205;44.868;38.140;2022-09-21T21:01:22;17.10;79.60
62853;DHT22;49205;44.868;38.140;2022-09-21T21:03:53;17.10;79.30
62853;DHT22;49205;44.868;38.140;2022-09-21T21:06:24;17.00;79.70